sensor_id;sensor_type;location;lat;lon;timestamp;P1;durP1;ratioP1;P2;durP2;ratioP2
63379;SDS011;53160;55.014;73.156;2023-06-26T00:01:54;21.60;;;20.60;;
63379;SDS011;53160;55.014;73.156;2023-06-26T00:04:20;18.20;;;16.60;;
63379;SDS011;53160;55.014;73.156;2023-06-26T00:06:46;18.20;;;18.20;;
63379;SDS011;53160;55.014;73.156;2023-06-26T00:11:56;19.80;;;19.20;;
63379;SDS011;53160;55.014;73.156;2023-06-26T00:14:22;22.20;;;22.00;;
63379;SDS011;53160;55.014;73.156;2023-06-26T00:16:51;18.00;;;17.20;;
63379;SDS011;53160;55.014;73.156;2023-06-26T00:19:17;23.00;;;21.20;;
63379;SDS011;53160;55.014;73.156;2023-06-26T00:21:43;22.00;;;20.60;;
63379;SDS011;53160;55.014;73.156;2023-06-26T00:24:13;14.20;;;14.20;;
63379;SDS011;53160;55.014;73.156;2023-06-26T00:26:40;23.60;;;22.20;;
63379;SDS011;53160;55.014;73.156;2023-06-26T00:29:06;26.00;;;24.40;;
63379;SDS011;53160;55.014;73.156;2023-06-26T00:31:32;24.00;;;21.80;;
63379;SDS011;53160;55.014;73.156;2023-06-26T00:34:18;18.00;;;16.80;;
63379;SDS011;53160;55.014;73.156;2023-06-26T00:37:03;23.40;;;22.20;;
63379;SDS011;53160;55.014;73.156;2023-06-26T00:39:30;24.80;;;23.40;;
63379;SDS011;53160;55.014;73.156;2023-06-26T00:41:56;20.00;;;20.00;;
63379;SDS011;53160;55.014;73.156;2023-06-26T00:44:23;23.20;;;21.40;;
63379;SDS011;53160;55.014;73.156;2023-06-26T00:49:53;25.40;;;24.40;;
63379;SDS011;53160;55.014;73.156;2023-06-26T00:52:20;18.20;;;17.40;;
63379;SDS011;53160;55.014;73.156;2023-06-26T00:54:46;21.60;;;19.80;;
63379;SDS011;53160;55.014;73.156;2023-06-26T00:57:12;17.80;;;16.80;;
63379;SDS011;53160;55.014;73.156;2023-06-26T00:59:39;20.75;;;19.75;;
63379;SDS011;53160;55.014;73.156;2023-06-26T01:02:23;19.25;;;19.25;;
63379;SDS011;53160;55.014;73.156;2023-06-26T01:04:50;23.20;;;22.40;;
63379;SDS011;53160;55.014;73.156;2023-06-26T01:07:18;24.20;;;19.60;;
63379;SDS011;53160;55.014;73.156;2023-06-26T01:09:46;23.20;;;19.40;;
63379;SDS011;53160;55.014;73.156;2023-06-26T01:12:12;17.80;;;17.00;;
63379;SDS011;53160;55.014;73.156;2023-06-26T01:14:39;15.80;;;15.60;;
63379;SDS011;53160;55.014;73.156;2023-06-26T01:17:06;20.25;;;19.25;;
63379;SDS011;53160;55.014;73.156;2023-06-26T01:31:19;21.40;;;21.00;;
63379;SDS011;53160;55.014;73.156;2023-06-26T01:33:45;17.00;;;16.80;;
63379;SDS011;53160;55.014;73.156;2023-06-26T01:36:12;17.60;;;17.40;;
63379;SDS011;53160;55.014;73.156;2023-06-26T01:41:23;21.00;;;21.00;;
63379;SDS011;53160;55.014;73.156;2023-06-26T01:46:57;19.80;;;19.40;;
63379;SDS011;53160;55.014;73.156;2023-06-26T01:52:12;20.00;;;19.00;;
63379;SDS011;53160;55.014;73.156;2023-06-26T01:54:55;17.20;;;17.20;;
63379;SDS011;53160;55.014;73.156;2023-06-26T01:57:42;19.00;;;17.25;;
63379;SDS011;53160;55.014;73.156;2023-06-26T02:00:09;20.75;;;19.00;;
63379;SDS011;53160;55.014;73.156;2023-06-26T02:02:40;19.60;;;18.80;;
63379;SDS011;53160;55.014;73.156;2023-06-26T02:05:07;18.75;;;17.50;;
63379;SDS011;53160;55.014;73.156;2023-06-26T02:07:33;19.25;;;18.75;;
63379;SDS011;53160;55.014;73.156;2023-06-26T02:10:02;20.50;;;18.50;;
63379;SDS011;53160;55.014;73.156;2023-06-26T02:12:28;18.75;;;18.25;;
63379;SDS011;53160;55.014;73.156;2023-06-26T02:14:54;20.80;;;19.20;;
63379;SDS011;53160;55.014;73.156;2023-06-26T02:17:40;19.00;;;18.50;;
63379;SDS011;53160;55.014;73.156;2023-06-26T02:20:25;16.00;;;14.75;;
63379;SDS011;53160;55.014;73.156;2023-06-26T02:23:28;26.00;;;26.00;;
63379;SDS011;53160;55.014;73.156;2023-06-26T02:26:13;22.50;;;19.75;;
63379;SDS011;53160;55.014;73.156;2023-06-26T02:28:41;19.25;;;17.00;;
63379;SDS011;53160;55.014;73.156;2023-06-26T02:31:11;18.00;;;18.00;;
63379;SDS011;53160;55.014;73.156;2023-06-26T02:33:37;20.75;;;18.00;;
63379;SDS011;53160;55.014;73.156;2023-06-26T02:36:03;16.00;;;16.00;;
63379;SDS011;53160;55.014;73.156;2023-06-26T02:41:35;17.75;;;16.25;;
63379;SDS011;53160;55.014;73.156;2023-06-26T02:44:22;15.00;;;14.75;;
63379;SDS011;53160;55.014;73.156;2023-06-26T02:49:51;15.25;;;15.00;;
63379;SDS011;53160;55.014;73.156;2023-06-26T02:52:17;15.00;;;14.00;;
63379;SDS011;53160;55.014;73.156;2023-06-26T02:57:30;14.50;;;13.00;;
63379;SDS011;53160;55.014;73.156;2023-06-26T02:59:57;24.50;;;20.75;;
63379;SDS011;53160;55.014;73.156;2023-06-26T03:02:25;16.50;;;16.00;;
63379;SDS011;53160;55.014;73.156;2023-06-26T03:05:03;13.25;;;13.00;;
63379;SDS011;53160;55.014;73.156;2023-06-26T03:07:29;18.00;;;17.50;;
63379;SDS011;53160;55.014;73.156;2023-06-26T03:09:56;17.00;;;15.75;;
63379;SDS011;53160;55.014;73.156;2023-06-26T03:12:22;19.25;;;14.75;;
63379;SDS011;53160;55.014;73.156;2023-06-26T03:14:48;18.25;;;18.00;;
63379;SDS011;53160;55.014;73.156;2023-06-26T03:17:14;11.50;;;11.50;;
63379;SDS011;53160;55.014;73.156;2023-06-26T03:19:43;10.50;;;10.25;;
63379;SDS011;53160;55.014;73.156;2023-06-26T03:22:13;16.75;;;15.75;;
63379;SDS011;53160;55.014;73.156;2023-06-26T03:24:39;19.25;;;17.75;;
63379;SDS011;53160;55.014;73.156;2023-06-26T03:27:06;12.00;;;12.00;;
63379;SDS011;53160;55.014;73.156;2023-06-26T03:29:33;16.67;;;15.00;;
63379;SDS011;53160;55.014;73.156;2023-06-26T03:31:59;8.75;;;8.50;;
63379;SDS011;53160;55.014;73.156;2023-06-26T03:34:26;14.75;;;14.00;;
63379;SDS011;53160;55.014;73.156;2023-06-26T03:36:53;13.00;;;12.75;;
63379;SDS011;53160;55.014;73.156;2023-06-26T03:42:04;16.75;;;15.25;;
63379;SDS011;53160;55.014;73.156;2023-06-26T03:44:50;14.50;;;14.00;;
63379;SDS011;53160;55.014;73.156;2023-06-26T03:47:34;15.25;;;14.25;;
63379;SDS011;53160;55.014;73.156;2023-06-26T03:50:02;12.75;;;12.25;;
63379;SDS011;53160;55.014;73.156;2023-06-26T03:52:29;14.75;;;13.00;;
63379;SDS011;53160;55.014;73.156;2023-06-26T03:54:57;14.75;;;14.75;;
63379;SDS011;53160;55.014;73.156;2023-06-26T03:57:23;13.75;;;13.50;;
63379;SDS011;53160;55.014;73.156;2023-06-26T03:59:49;15.50;;;13.75;;
63379;SDS011;53160;55.014;73.156;2023-06-26T04:02:15;11.25;;;10.75;;
63379;SDS011;53160;55.014;73.156;2023-06-26T04:04:43;15.50;;;13.50;;
63379;SDS011;53160;55.014;73.156;2023-06-26T04:07:10;15.25;;;14.75;;
63379;SDS011;53160;55.014;73.156;2023-06-26T04:09:36;13.25;;;12.75;;
63379;SDS011;53160;55.014;73.156;2023-06-26T04:12:04;13.00;;;12.50;;
63379;SDS011;53160;55.014;73.156;2023-06-26T04:14:30;11.75;;;11.75;;
63379;SDS011;53160;55.014;73.156;2023-06-26T04:16:56;14.00;;;12.25;;
63379;SDS011;53160;55.014;73.156;2023-06-26T04:19:23;35.00;;;31.80;;
63379;SDS011;53160;55.014;73.156;2023-06-26T04:21:49;19.00;;;17.00;;
63379;SDS011;53160;55.014;73.156;2023-06-26T04:24:15;15.50;;;14.00;;
63379;SDS011;53160;55.014;73.156;2023-06-26T04:26:41;12.50;;;11.75;;
63379;SDS011;53160;55.014;73.156;2023-06-26T04:29:08;18.25;;;14.00;;
63379;SDS011;53160;55.014;73.156;2023-06-26T04:34:26;14.75;;;13.00;;
63379;SDS011;53160;55.014;73.156;2023-06-26T04:36:53;11.75;;;11.00;;
63379;SDS011;53160;55.014;73.156;2023-06-26T04:39:20;13.25;;;12.00;;
63379;SDS011;53160;55.014;73.156;2023-06-26T04:41:49;12.00;;;11.00;;
63379;SDS011;53160;55.014;73.156;2023-06-26T04:44:15;14.50;;;13.50;;
63379;SDS011;53160;55.014;73.156;2023-06-26T04:46:41;14.50;;;13.75;;
63379;SDS011;53160;55.014;73.156;2023-06-26T04:49:08;12.25;;;12.25;;
63379;SDS011;53160;55.014;73.156;2023-06-26T04:51:34;13.75;;;12.75;;
63379;SDS011;53160;55.014;73.156;2023-06-26T04:54:06;14.75;;;14.00;;
63379;SDS011;53160;55.014;73.156;2023-06-26T04:56:32;11.25;;;10.50;;
63379;SDS011;53160;55.014;73.156;2023-06-26T04:58:59;12.50;;;12.25;;
63379;SDS011;53160;55.014;73.156;2023-06-26T05:04:13;12.00;;;10.75;;
63379;SDS011;53160;55.014;73.156;2023-06-26T05:06:40;11.25;;;10.00;;
63379;SDS011;53160;55.014;73.156;2023-06-26T05:09:07;13.75;;;13.00;;
63379;SDS011;53160;55.014;73.156;2023-06-26T05:11:34;8.25;;;8.00;;
63379;SDS011;53160;55.014;73.156;2023-06-26T05:14:18;9.50;;;9.00;;
63379;SDS011;53160;55.014;73.156;2023-06-26T05:19:32;22.00;;;17.75;;
63379;SDS011;53160;55.014;73.156;2023-06-26T05:21:58;12.25;;;11.50;;
63379;SDS011;53160;55.014;73.156;2023-06-26T05:24:29;11.33;;;10.00;;
63379;SDS011;53160;55.014;73.156;2023-06-26T05:26:56;10.25;;;8.50;;
63379;SDS011;53160;55.014;73.156;2023-06-26T05:29:22;11.50;;;11.50;;
63379;SDS011;53160;55.014;73.156;2023-06-26T05:32:06;10.25;;;9.75;;
63379;SDS011;53160;55.014;73.156;2023-06-26T05:38:16;6.50;;;6.25;;
63379;SDS011;53160;55.014;73.156;2023-06-26T05:40:42;14.00;;;10.00;;
63379;SDS011;53160;55.014;73.156;2023-06-26T05:43:11;11.25;;;8.00;;
63379;SDS011;53160;55.014;73.156;2023-06-26T05:45:37;10.00;;;9.00;;
63379;SDS011;53160;55.014;73.156;2023-06-26T05:48:21;11.75;;;11.00;;
63379;SDS011;53160;55.014;73.156;2023-06-26T05:51:06;14.00;;;13.25;;
63379;SDS011;53160;55.014;73.156;2023-06-26T05:53:32;12.25;;;11.75;;
63379;SDS011;53160;55.014;73.156;2023-06-26T05:56:36;8.25;;;7.25;;
63379;SDS011;53160;55.014;73.156;2023-06-26T05:59:20;10.00;;;10.00;;
63379;SDS011;53160;55.014;73.156;2023-06-26T06:01:47;14.75;;;10.75;;
63379;SDS011;53160;55.014;73.156;2023-06-26T06:04:13;14.25;;;12.25;;
63379;SDS011;53160;55.014;73.156;2023-06-26T06:06:39;15.50;;;12.75;;
63379;SDS011;53160;55.014;73.156;2023-06-26T06:09:07;9.25;;;9.00;;
63379;SDS011;53160;55.014;73.156;2023-06-26T06:11:33;11.00;;;10.00;;
63379;SDS011;53160;55.014;73.156;2023-06-26T06:13:59;9.25;;;9.25;;
63379;SDS011;53160;55.014;73.156;2023-06-26T06:16:26;14.25;;;9.75;;
63379;SDS011;53160;55.014;73.156;2023-06-26T06:18:58;8.25;;;8.25;;
63379;SDS011;53160;55.014;73.156;2023-06-26T06:21:24;5.50;;;5.00;;
63379;SDS011;53160;55.014;73.156;2023-06-26T06:24:08;9.25;;;8.50;;
63379;SDS011;53160;55.014;73.156;2023-06-26T06:26:53;5.75;;;4.50;;
63379;SDS011;53160;55.014;73.156;2023-06-26T06:29:38;8.25;;;8.25;;
63379;SDS011;53160;55.014;73.156;2023-06-26T06:32:04;8.00;;;8.00;;
63379;SDS011;53160;55.014;73.156;2023-06-26T06:34:32;9.50;;;8.00;;
63379;SDS011;53160;55.014;73.156;2023-06-26T06:39:43;8.00;;;7.75;;
63379;SDS011;53160;55.014;73.156;2023-06-26T06:44:54;5.75;;;5.00;;
63379;SDS011;53160;55.014;73.156;2023-06-26T06:47:38;7.75;;;7.75;;
63379;SDS011;53160;55.014;73.156;2023-06-26T06:50:04;7.25;;;7.00;;
63379;SDS011;53160;55.014;73.156;2023-06-26T06:52:37;7.00;;;7.00;;
63379;SDS011;53160;55.014;73.156;2023-06-26T06:55:05;6.25;;;5.75;;
63379;SDS011;53160;55.014;73.156;2023-06-26T06:57:35;10.00;;;9.00;;
63379;SDS011;53160;55.014;73.156;2023-06-26T07:00:12;10.25;;;10.25;;
63379;SDS011;53160;55.014;73.156;2023-06-26T07:02:41;8.75;;;8.00;;
63379;SDS011;53160;55.014;73.156;2023-06-26T07:07:54;4.75;;;4.25;;
63379;SDS011;53160;55.014;73.156;2023-06-26T07:10:20;9.50;;;9.00;;
63379;SDS011;53160;55.014;73.156;2023-06-26T07:12:46;9.00;;;7.75;;
63379;SDS011;53160;55.014;73.156;2023-06-26T07:15:12;14.75;;;13.25;;
63379;SDS011;53160;55.014;73.156;2023-06-26T07:17:38;9.25;;;8.50;;
63379;SDS011;53160;55.014;73.156;2023-06-26T07:20:05;8.50;;;8.00;;
63379;SDS011;53160;55.014;73.156;2023-06-26T07:22:32;7.00;;;6.25;;
63379;SDS011;53160;55.014;73.156;2023-06-26T07:24:58;5.75;;;5.75;;
63379;SDS011;53160;55.014;73.156;2023-06-26T07:27:24;7.00;;;7.00;;
63379;SDS011;53160;55.014;73.156;2023-06-26T07:29:50;7.00;;;7.00;;
63379;SDS011;53160;55.014;73.156;2023-06-26T07:32:35;8.00;;;8.00;;
63379;SDS011;53160;55.014;73.156;2023-06-26T07:35:01;7.00;;;7.00;;
63379;SDS011;53160;55.014;73.156;2023-06-26T07:37:27;8.25;;;8.00;;
63379;SDS011;53160;55.014;73.156;2023-06-26T07:39:53;8.00;;;8.00;;
63379;SDS011;53160;55.014;73.156;2023-06-26T07:42:22;6.00;;;6.00;;
63379;SDS011;53160;55.014;73.156;2023-06-26T07:44:48;8.50;;;7.25;;
63379;SDS011;53160;55.014;73.156;2023-06-26T07:47:14;10.25;;;9.25;;
63379;SDS011;53160;55.014;73.156;2023-06-26T07:49:40;7.00;;;6.25;;
63379;SDS011;53160;55.014;73.156;2023-06-26T07:52:24;5.00;;;4.75;;
63379;SDS011;53160;55.014;73.156;2023-06-26T07:55:09;5.75;;;5.75;;
63379;SDS011;53160;55.014;73.156;2023-06-26T07:57:35;4.50;;;4.50;;
63379;SDS011;53160;55.014;73.156;2023-06-26T08:00:01;6.00;;;5.75;;
63379;SDS011;53160;55.014;73.156;2023-06-26T08:02:29;5.50;;;5.50;;
63379;SDS011;53160;55.014;73.156;2023-06-26T08:07:40;6.25;;;6.00;;
63379;SDS011;53160;55.014;73.156;2023-06-26T08:10:06;4.75;;;4.75;;
63379;SDS011;53160;55.014;73.156;2023-06-26T08:12:32;7.25;;;7.25;;
63379;SDS011;53160;55.014;73.156;2023-06-26T08:14:58;8.50;;;8.00;;
63379;SDS011;53160;55.014;73.156;2023-06-26T08:17:43;4.50;;;4.50;;
63379;SDS011;53160;55.014;73.156;2023-06-26T08:20:10;6.75;;;6.25;;
63379;SDS011;53160;55.014;73.156;2023-06-26T08:22:36;5.50;;;5.50;;
63379;SDS011;53160;55.014;73.156;2023-06-26T08:25:21;9.75;;;9.75;;
63379;SDS011;53160;55.014;73.156;2023-06-26T08:27:47;8.50;;;8.50;;
63379;SDS011;53160;55.014;73.156;2023-06-26T08:30:14;8.50;;;8.25;;
63379;SDS011;53160;55.014;73.156;2023-06-26T08:36:03;9.25;;;8.50;;
63379;SDS011;53160;55.014;73.156;2023-06-26T08:38:48;8.75;;;8.50;;
63379;SDS011;53160;55.014;73.156;2023-06-26T08:41:33;8.25;;;8.25;;
63379;SDS011;53160;55.014;73.156;2023-06-26T08:44:19;5.75;;;5.75;;
63379;SDS011;53160;55.014;73.156;2023-06-26T08:46:50;6.50;;;5.75;;
63379;SDS011;53160;55.014;73.156;2023-06-26T08:49:27;6.75;;;6.00;;
63379;SDS011;53160;55.014;73.156;2023-06-26T08:52:00;8.75;;;8.75;;
63379;SDS011;53160;55.014;73.156;2023-06-26T08:54:28;6.25;;;6.25;;
63379;SDS011;53160;55.014;73.156;2023-06-26T08:56:56;7.25;;;6.25;;
63379;SDS011;53160;55.014;73.156;2023-06-26T08:59:26;7.25;;;7.00;;
63379;SDS011;53160;55.014;73.156;2023-06-26T09:01:52;8.75;;;7.00;;
63379;SDS011;53160;55.014;73.156;2023-06-26T09:04:18;7.75;;;7.50;;
63379;SDS011;53160;55.014;73.156;2023-06-26T09:06:45;8.50;;;8.50;;
63379;SDS011;53160;55.014;73.156;2023-06-26T09:09:12;9.00;;;8.75;;
63379;SDS011;53160;55.014;73.156;2023-06-26T09:15:19;16.00;;;15.75;;
63379;SDS011;53160;55.014;73.156;2023-06-26T09:17:45;16.00;;;16.00;;
63379;SDS011;53160;55.014;73.156;2023-06-26T09:20:12;17.50;;;17.00;;
63379;SDS011;53160;55.014;73.156;2023-06-26T09:22:43;12.75;;;12.25;;
63379;SDS011;53160;55.014;73.156;2023-06-26T09:25:12;12.00;;;11.25;;
63379;SDS011;53160;55.014;73.156;2023-06-26T09:27:38;7.25;;;6.25;;
63379;SDS011;53160;55.014;73.156;2023-06-26T09:30:05;9.25;;;8.25;;
63379;SDS011;53160;55.014;73.156;2023-06-26T09:32:35;10.50;;;9.00;;
63379;SDS011;53160;55.014;73.156;2023-06-26T09:35:20;8.50;;;8.50;;
63379;SDS011;53160;55.014;73.156;2023-06-26T09:37:46;8.00;;;7.75;;
63379;SDS011;53160;55.014;73.156;2023-06-26T09:40:13;6.25;;;6.25;;
63379;SDS011;53160;55.014;73.156;2023-06-26T09:43:02;10.25;;;9.00;;
63379;SDS011;53160;55.014;73.156;2023-06-26T09:45:28;7.75;;;7.75;;
63379;SDS011;53160;55.014;73.156;2023-06-26T09:50:41;6.00;;;6.00;;
63379;SDS011;53160;55.014;73.156;2023-06-26T09:53:07;7.50;;;7.50;;
63379;SDS011;53160;55.014;73.156;2023-06-26T09:55:35;8.25;;;7.75;;
63379;SDS011;53160;55.014;73.156;2023-06-26T09:58:03;3.00;;;3.00;;
63379;SDS011;53160;55.014;73.156;2023-06-26T10:00:30;6.25;;;6.25;;
63379;SDS011;53160;55.014;73.156;2023-06-26T10:02:56;8.00;;;7.00;;
63379;SDS011;53160;55.014;73.156;2023-06-26T10:05:22;5.25;;;5.25;;
63379;SDS011;53160;55.014;73.156;2023-06-26T10:08:07;6.25;;;6.25;;
63379;SDS011;53160;55.014;73.156;2023-06-26T10:10:37;5.25;;;5.25;;
63379;SDS011;53160;55.014;73.156;2023-06-26T10:13:27;5.25;;;4.50;;
63379;SDS011;53160;55.014;73.156;2023-06-26T10:15:56;5.25;;;5.25;;
63379;SDS011;53160;55.014;73.156;2023-06-26T10:18:25;6.00;;;6.00;;
63379;SDS011;53160;55.014;73.156;2023-06-26T10:20:54;3.50;;;3.50;;
63379;SDS011;53160;55.014;73.156;2023-06-26T10:23:21;5.00;;;5.00;;
63379;SDS011;53160;55.014;73.156;2023-06-26T10:25:51;5.00;;;5.00;;
63379;SDS011;53160;55.014;73.156;2023-06-26T10:28:17;4.50;;;4.25;;
63379;SDS011;53160;55.014;73.156;2023-06-26T10:30:45;6.00;;;5.75;;
63379;SDS011;53160;55.014;73.156;2023-06-26T10:33:12;7.25;;;7.00;;
63379;SDS011;53160;55.014;73.156;2023-06-26T10:36:13;7.75;;;6.25;;
63379;SDS011;53160;55.014;73.156;2023-06-26T10:38:49;8.00;;;6.50;;
63379;SDS011;53160;55.014;73.156;2023-06-26T10:41:17;4.75;;;4.00;;
63379;SDS011;53160;55.014;73.156;2023-06-26T10:43:49;7.50;;;5.00;;
63379;SDS011;53160;55.014;73.156;2023-06-26T10:46:15;5.75;;;5.00;;
63379;SDS011;53160;55.014;73.156;2023-06-26T10:48:57;5.00;;;5.00;;
63379;SDS011;53160;55.014;73.156;2023-06-26T10:51:24;6.50;;;6.00;;
63379;SDS011;53160;55.014;73.156;2023-06-26T10:54:00;6.00;;;6.00;;
63379;SDS011;53160;55.014;73.156;2023-06-26T10:56:42;7.75;;;6.25;;
63379;SDS011;53160;55.014;73.156;2023-06-26T10:59:21;6.75;;;5.50;;
63379;SDS011;53160;55.014;73.156;2023-06-26T11:04:22;6.00;;;5.00;;
63379;SDS011;53160;55.014;73.156;2023-06-26T11:07:18;6.50;;;5.25;;
63379;SDS011;53160;55.014;73.156;2023-06-26T11:09:57;6.50;;;5.75;;
63379;SDS011;53160;55.014;73.156;2023-06-26T11:12:43;7.25;;;6.00;;
63379;SDS011;53160;55.014;73.156;2023-06-26T11:15:16;8.50;;;7.50;;
63379;SDS011;53160;55.014;73.156;2023-06-26T11:17:43;10.50;;;8.25;;
63379;SDS011;53160;55.014;73.156;2023-06-26T11:20:09;8.25;;;6.75;;
63379;SDS011;53160;55.014;73.156;2023-06-26T11:22:54;5.00;;;4.75;;
63379;SDS011;53160;55.014;73.156;2023-06-26T11:28:09;11.50;;;9.00;;
63379;SDS011;53160;55.014;73.156;2023-06-26T11:30:35;11.50;;;9.00;;
63379;SDS011;53160;55.014;73.156;2023-06-26T11:35:46;10.75;;;9.00;;
63379;SDS011;53160;55.014;73.156;2023-06-26T11:38:12;9.50;;;8.25;;
63379;SDS011;53160;55.014;73.156;2023-06-26T11:40:38;8.50;;;7.75;;
63379;SDS011;53160;55.014;73.156;2023-06-26T11:43:04;3.25;;;3.25;;
63379;SDS011;53160;55.014;73.156;2023-06-26T11:45:31;7.75;;;7.75;;
63379;SDS011;53160;55.014;73.156;2023-06-26T11:47:58;10.25;;;8.00;;
63379;SDS011;53160;55.014;73.156;2023-06-26T11:50:24;8.00;;;7.25;;
63379;SDS011;53160;55.014;73.156;2023-06-26T11:53:09;6.75;;;6.25;;
63379;SDS011;53160;55.014;73.156;2023-06-26T11:55:40;7.25;;;6.50;;
63379;SDS011;53160;55.014;73.156;2023-06-26T11:58:06;5.75;;;5.25;;
63379;SDS011;53160;55.014;73.156;2023-06-26T12:00:32;23.25;;;14.50;;
63379;SDS011;53160;55.014;73.156;2023-06-26T12:02:58;8.75;;;6.75;;
63379;SDS011;53160;55.014;73.156;2023-06-26T12:05:43;6.50;;;4.50;;
63379;SDS011;53160;55.014;73.156;2023-06-26T12:08:29;5.00;;;5.00;;
63379;SDS011;53160;55.014;73.156;2023-06-26T12:10:55;3.50;;;3.50;;
63379;SDS011;53160;55.014;73.156;2023-06-26T12:13:21;6.75;;;6.25;;
63379;SDS011;53160;55.014;73.156;2023-06-26T12:15:47;5.75;;;2.25;;
63379;SDS011;53160;55.014;73.156;2023-06-26T12:18:13;7.00;;;5.50;;
63379;SDS011;53160;55.014;73.156;2023-06-26T12:20:40;10.25;;;7.25;;
63379;SDS011;53160;55.014;73.156;2023-06-26T12:23:12;10.25;;;8.25;;
63379;SDS011;53160;55.014;73.156;2023-06-26T12:25:39;11.50;;;9.50;;
63379;SDS011;53160;55.014;73.156;2023-06-26T12:28:14;8.75;;;8.00;;
63379;SDS011;53160;55.014;73.156;2023-06-26T12:30:40;10.25;;;7.50;;
63379;SDS011;53160;55.014;73.156;2023-06-26T12:33:14;6.00;;;5.25;;
63379;SDS011;53160;55.014;73.156;2023-06-26T12:38:32;5.00;;;5.00;;
63379;SDS011;53160;55.014;73.156;2023-06-26T12:43:43;7.75;;;7.25;;
63379;SDS011;53160;55.014;73.156;2023-06-26T12:46:09;6.50;;;5.25;;
63379;SDS011;53160;55.014;73.156;2023-06-26T12:48:38;12.33;;;9.00;;
63379;SDS011;53160;55.014;73.156;2023-06-26T12:51:10;9.25;;;8.00;;
63379;SDS011;53160;55.014;73.156;2023-06-26T12:53:55;6.50;;;5.00;;
63379;SDS011;53160;55.014;73.156;2023-06-26T12:56:21;7.00;;;6.50;;
63379;SDS011;53160;55.014;73.156;2023-06-26T12:58:47;7.25;;;6.25;;
63379;SDS011;53160;55.014;73.156;2023-06-26T13:01:31;6.00;;;5.75;;
63379;SDS011;53160;55.014;73.156;2023-06-26T13:03:58;7.25;;;5.50;;
63379;SDS011;53160;55.014;73.156;2023-06-26T13:06:24;8.50;;;7.50;;
63379;SDS011;53160;55.014;73.156;2023-06-26T13:09:08;5.25;;;5.00;;
63379;SDS011;53160;55.014;73.156;2023-06-26T13:11:35;5.00;;;5.00;;
63379;SDS011;53160;55.014;73.156;2023-06-26T13:14:01;8.75;;;5.75;;
63379;SDS011;53160;55.014;73.156;2023-06-26T13:16:28;14.75;;;8.00;;
63379;SDS011;53160;55.014;73.156;2023-06-26T13:18:54;5.00;;;5.00;;
63379;SDS011;53160;55.014;73.156;2023-06-26T13:21:20;5.50;;;4.25;;
63379;SDS011;53160;55.014;73.156;2023-06-26T13:23:46;6.00;;;5.00;;
63379;SDS011;53160;55.014;73.156;2023-06-26T13:26:12;6.75;;;6.25;;
63379;SDS011;53160;55.014;73.156;2023-06-26T13:28:38;5.50;;;5.00;;
63379;SDS011;53160;55.014;73.156;2023-06-26T13:31:04;5.00;;;3.75;;
63379;SDS011;53160;55.014;73.156;2023-06-26T13:33:30;4.00;;;4.00;;
63379;SDS011;53160;55.014;73.156;2023-06-26T13:35:57;4.75;;;4.00;;
63379;SDS011;53160;55.014;73.156;2023-06-26T13:38:23;5.75;;;4.00;;
63379;SDS011;53160;55.014;73.156;2023-06-26T13:40:53;5.00;;;5.00;;
63379;SDS011;53160;55.014;73.156;2023-06-26T13:43:20;5.75;;;4.75;;
63379;SDS011;53160;55.014;73.156;2023-06-26T13:45:46;6.00;;;4.75;;
63379;SDS011;53160;55.014;73.156;2023-06-26T13:48:12;19.00;;;11.75;;
63379;SDS011;53160;55.014;73.156;2023-06-26T13:50:38;9.75;;;7.50;;
63379;SDS011;53160;55.014;73.156;2023-06-26T13:53:04;7.00;;;6.75;;
63379;SDS011;53160;55.014;73.156;2023-06-26T13:55:32;4.25;;;4.00;;
63379;SDS011;53160;55.014;73.156;2023-06-26T13:57:58;4.75;;;3.75;;
63379;SDS011;53160;55.014;73.156;2023-06-26T14:00:24;10.75;;;8.50;;
63379;SDS011;53160;55.014;73.156;2023-06-26T14:02:51;5.25;;;4.50;;
63379;SDS011;53160;55.014;73.156;2023-06-26T14:05:17;6.75;;;6.75;;
63379;SDS011;53160;55.014;73.156;2023-06-26T14:07:46;7.25;;;7.25;;
63379;SDS011;53160;55.014;73.156;2023-06-26T14:10:31;13.25;;;10.25;;
63379;SDS011;53160;55.014;73.156;2023-06-26T14:13:11;11.50;;;9.75;;
63379;SDS011;53160;55.014;73.156;2023-06-26T14:15:41;10.50;;;9.50;;
63379;SDS011;53160;55.014;73.156;2023-06-26T14:18:07;12.50;;;10.25;;
63379;SDS011;53160;55.014;73.156;2023-06-26T14:20:33;8.75;;;8.25;;
63379;SDS011;53160;55.014;73.156;2023-06-26T14:22:59;7.00;;;6.75;;
63379;SDS011;53160;55.014;73.156;2023-06-26T14:25:25;8.67;;;8.00;;
63379;SDS011;53160;55.014;73.156;2023-06-26T14:28:09;8.75;;;8.00;;
63379;SDS011;53160;55.014;73.156;2023-06-26T14:30:35;8.25;;;7.75;;
63379;SDS011;53160;55.014;73.156;2023-06-26T14:33:02;6.25;;;5.75;;
63379;SDS011;53160;55.014;73.156;2023-06-26T14:35:28;9.50;;;7.50;;
63379;SDS011;53160;55.014;73.156;2023-06-26T14:37:54;8.75;;;8.25;;
63379;SDS011;53160;55.014;73.156;2023-06-26T14:43:42;9.75;;;7.25;;
63379;SDS011;53160;55.014;73.156;2023-06-26T14:46:08;6.50;;;6.50;;
63379;SDS011;53160;55.014;73.156;2023-06-26T14:48:34;8.00;;;7.50;;
63379;SDS011;53160;55.014;73.156;2023-06-26T14:51:19;7.25;;;7.25;;
63379;SDS011;53160;55.014;73.156;2023-06-26T14:54:03;8.00;;;8.00;;
63379;SDS011;53160;55.014;73.156;2023-06-26T14:56:29;3.75;;;3.50;;
63379;SDS011;53160;55.014;73.156;2023-06-26T14:59:13;6.50;;;6.50;;
63379;SDS011;53160;55.014;73.156;2023-06-26T15:01:40;8.75;;;7.25;;
63379;SDS011;53160;55.014;73.156;2023-06-26T15:04:07;8.00;;;8.00;;
63379;SDS011;53160;55.014;73.156;2023-06-26T15:06:33;10.50;;;9.50;;
63379;SDS011;53160;55.014;73.156;2023-06-26T15:08:59;9.25;;;7.75;;
63379;SDS011;53160;55.014;73.156;2023-06-26T15:11:28;6.00;;;6.00;;
63379;SDS011;53160;55.014;73.156;2023-06-26T15:13:54;8.50;;;8.50;;
63379;SDS011;53160;55.014;73.156;2023-06-26T15:16:20;8.00;;;7.50;;
63379;SDS011;53160;55.014;73.156;2023-06-26T15:18:46;7.00;;;6.50;;
63379;SDS011;53160;55.014;73.156;2023-06-26T15:21:13;8.00;;;6.67;;
63379;SDS011;53160;55.014;73.156;2023-06-26T15:23:39;8.25;;;8.25;;
63379;SDS011;53160;55.014;73.156;2023-06-26T15:26:05;4.50;;;4.00;;
63379;SDS011;53160;55.014;73.156;2023-06-26T15:28:31;9.75;;;9.50;;
63379;SDS011;53160;55.014;73.156;2023-06-26T15:31:00;10.25;;;8.50;;
63379;SDS011;53160;55.014;73.156;2023-06-26T15:33:26;12.00;;;10.25;;
63379;SDS011;53160;55.014;73.156;2023-06-26T15:35:52;9.25;;;8.50;;
63379;SDS011;53160;55.014;73.156;2023-06-26T15:38:18;7.25;;;7.00;;
63379;SDS011;53160;55.014;73.156;2023-06-26T15:40:44;8.00;;;7.50;;
63379;SDS011;53160;55.014;73.156;2023-06-26T15:43:10;10.00;;;8.25;;
63379;SDS011;53160;55.014;73.156;2023-06-26T15:45:36;10.00;;;9.00;;
63379;SDS011;53160;55.014;73.156;2023-06-26T15:48:02;8.25;;;7.50;;
63379;SDS011;53160;55.014;73.156;2023-06-26T15:50:28;11.25;;;9.25;;
63379;SDS011;53160;55.014;73.156;2023-06-26T15:52:54;8.25;;;8.00;;
63379;SDS011;53160;55.014;73.156;2023-06-26T15:55:20;11.00;;;8.75;;
63379;SDS011;53160;55.014;73.156;2023-06-26T15:57:46;11.25;;;10.50;;
63379;SDS011;53160;55.014;73.156;2023-06-26T16:00:12;11.25;;;10.75;;
63379;SDS011;53160;55.014;73.156;2023-06-26T16:02:38;10.75;;;10.50;;
63379;SDS011;53160;55.014;73.156;2023-06-26T16:07:49;10.75;;;10.50;;
63379;SDS011;53160;55.014;73.156;2023-06-26T16:13:00;9.00;;;9.00;;